<?xml version='1.0' encoding='UTF-8'?>
<gpx xmlns="http://www.topografix.com/GPX/1/1" creator="www.balnam.be" version="1.1" xmlns:xsi="http://www.w3.org/2001/XMLSchema-instance" xsi:schemaLocation="http://www.topografix.com/GPX/1/1 http://www.topografix.com/GPX/1/1/gpx.xsd">
<trk>
<name>xvssb49</name>
<cmt>v</cmt>
<desc>Sibret Chemin n°49 </desc>
<link href="https://chemins.be/sibret/chemin/49"/><trkseg>
<trkpt lat="49.966558" lon="5.660313"><time>2026-05-03T21:22:06Z</time></trkpt>
<trkpt lat="49.967131" lon="5.660102"><time>2026-05-03T21:32:06Z</time></trkpt>
<trkpt lat="49.968158" lon="5.659836"><time>2026-05-03T21:42:06Z</time></trkpt>
<trkpt lat="49.970978" lon="5.659654"><time>2026-05-03T21:52:06Z</time></trkpt>
<trkpt lat="49.972941" lon="5.660133"><time>2026-05-03T22:02:06Z</time></trkpt>
<trkpt lat="49.974166" lon="5.659830"><time>2026-05-03T22:12:06Z</time></trkpt>
<trkpt lat="49.975139" lon="5.659590"><time>2026-05-03T22:22:06Z</time></trkpt>
<trkpt lat="49.975397" lon="5.659890"><time>2026-05-03T22:32:06Z</time></trkpt>
</trkseg></trk>
<trk>
<name>xvssb49</name>
<cmt>r</cmt>
<desc>Sibret Chemin n°49 </desc>
<link href="https://chemins.be/sibret/chemin/49"/><trkseg>
<trkpt lat="49.975397" lon="5.659890"><time>2026-05-03T22:32:06Z</time></trkpt>
<trkpt lat="49.975710" lon="5.659389"><time>2026-05-03T22:42:06Z</time></trkpt>
<trkpt lat="49.977044" lon="5.658367"><time>2026-05-03T22:52:06Z</time></trkpt>
<trkpt lat="49.978488" lon="5.656650"><time>2026-05-03T23:02:06Z</time></trkpt>
<trkpt lat="49.979482" lon="5.656593"><time>2026-05-03T23:12:06Z</time></trkpt>
<trkpt lat="49.979808" lon="5.656214"><time>2026-05-03T23:22:06Z</time></trkpt>
<trkpt lat="49.981435" lon="5.655456"><time>2026-05-03T23:32:06Z</time></trkpt>
<trkpt lat="49.985243" lon="5.656500"><time>2026-05-03T23:42:06Z</time></trkpt>
</trkseg></trk>
<trk>
<name>xvssb49</name>
<cmt>v</cmt>
<desc>Sibret Chemin n°49 </desc>
<link href="https://chemins.be/sibret/chemin/49"/><trkseg>
<trkpt lat="49.985243" lon="5.656500"><time>2026-05-03T23:42:06Z</time></trkpt>
<trkpt lat="49.985592" lon="5.655885"><time>2026-05-03T23:52:06Z</time></trkpt>
<trkpt lat="49.985829" lon="5.655105"><time>2026-05-04T00:02:06Z</time></trkpt>
<trkpt lat="49.986521" lon="5.654554"><time>2026-05-04T00:12:06Z</time></trkpt>
<trkpt lat="49.987901" lon="5.654240"><time>2026-05-04T00:22:06Z</time></trkpt>
<trkpt lat="49.990817" lon="5.651994"><time>2026-05-04T00:32:06Z</time></trkpt>
<trkpt lat="49.993189" lon="5.649505"><time>2026-05-04T00:42:06Z</time></trkpt>
<trkpt lat="49.995534" lon="5.648689"><time>2026-05-04T00:52:06Z</time></trkpt>
<trkpt lat="49.998872" lon="5.646501"><time>2026-05-04T01:02:06Z</time></trkpt>
<trkpt lat="50.005778" lon="5.644269"><time>2026-05-04T01:12:06Z</time></trkpt>
<trkpt lat="50.009870" lon="5.642939"><time>2026-05-04T01:22:06Z</time></trkpt>
<trkpt lat="50.010941" lon="5.643003"><time>2026-05-04T01:32:06Z</time></trkpt>
</trkseg>
</trk>
</gpx>